logo dgac
Miércoles 19 de Junio del 2024
Buscar por aerodromo o helipuerto
Ingrese nombre de aeródromo, localidad o designador OACI:

Aeródromo: Cañal Bajo - Carlos Hott Siebert (PUB) (SCJO)

Ubicación: Osorno, X Región, Chile (40º 36' 41'' S, 73º 03' 38'' W) Ver ubicación en el mapa

Pistas

Luces
Orientación Dimensión Pendiente Superficie Resistencia APCH THR RWY PAPI
15/33 1950 x 45 0,02 ASPH PCN 40 F/C/W/T
15/33 782 x 19 Pasto OPS solo Planeadores y sus Remolcadores 5700 No No No No
Horas de operación HJ
Elevación 57 m / 187 ft
Otra Información Adm : D.G.A.C.
Uso : PUB
Ubicado a 7 km SE de Osorno
TEL 642232529 / 224392865
email : aro.osorno@dgac.gob.cl

Otra información ver AIP-Chile Volumen I AD 3.9-14.2-O
CCCM/FCCV Descargar CCCM/FCCV
andera de Chile
Mapa de Cañal Bajo - Carlos Hott Siebert (PUB) (SCJO)

Último METAR

METAR SCJO 191100Z AUTO VRB02KT 9999 OVC065/// 02/01 Q1017

Último TAF

TAF SCJO 191110Z 1912/1924 VRB02KT 9999 BKN035 TN03/1913Z TX09/1919Z BECMG 1913/1915 05007KT BECMG 1917/1919 SCT025 OVC035

Últimas fotos cámaras

Imagen aerodromo Cañal Bajo - Carlos Hott Siebert (PUB) (SCJO) Sur tomada el 19-06-2024 11:43:47 Imagen aerodromo Cañal Bajo - Carlos Hott Siebert (PUB) (SCJO) N-Oeste tomada el 19-06-2024 11:42:11

Último NOTAM

C2696/24 NOTAMN Q)SCTZ/QMWHW/IV/M/A/000/999/4037S07304W005 A)SCJO B)2406181544 C)2406212359 E)STRIP RWY 15/33 WIP, CTN